createdAt,value
2023-02-02T00:00:59.703Z,1.60
2023-02-02T00:01:59.690Z,0.80
2023-02-02T00:02:59.694Z,2.30
2023-02-02T00:03:59.704Z,1.00
2023-02-02T00:04:59.668Z,0.90
2023-02-02T00:05:59.639Z,0.80
2023-02-02T00:06:59.633Z,2.30
2023-02-02T00:07:59.619Z,0.30
2023-02-02T00:08:59.606Z,2.40
2023-02-02T00:09:59.628Z,0.80
2023-02-02T00:10:59.588Z,3.20
2023-02-02T00:11:59.594Z,3.90
2023-02-02T00:12:59.572Z,0.50
2023-02-02T00:13:59.558Z,2.60
2023-02-02T00:14:59.573Z,2.20
2023-02-02T00:15:59.563Z,1.20
2023-02-02T00:16:59.536Z,1.30
2023-02-02T00:17:59.507Z,3.90
2023-02-02T00:18:59.512Z,0.70
2023-02-02T00:19:59.488Z,0.50
2023-02-02T00:20:59.499Z,0.90
2023-02-02T00:21:59.473Z,0.30
2023-02-02T00:22:59.457Z,1.00
2023-02-02T00:23:59.439Z,3.00
2023-02-02T00:24:59.430Z,8.50
2023-02-02T00:25:59.427Z,0.10
2023-02-02T00:26:59.447Z,1.30
2023-02-02T00:27:59.407Z,0.90
2023-02-02T00:28:59.387Z,3.30
2023-02-02T00:29:59.389Z,3.20
2023-02-02T00:30:59.431Z,2.50
2023-02-02T00:31:59.379Z,1.00
2023-02-02T00:32:59.366Z,1.10
2023-02-02T00:33:59.339Z,3.10
2023-02-02T00:34:59.320Z,3.50
2023-02-02T00:35:59.328Z,1.80
2023-02-02T00:36:59.298Z,2.70
2023-02-02T00:37:59.315Z,1.10
2023-02-02T00:38:59.282Z,0.60
2023-02-02T00:39:59.269Z,0.40
2023-02-02T00:40:59.267Z,1.30
2023-02-02T00:41:59.259Z,2.00
2023-02-02T00:42:59.258Z,0.70
2023-02-02T00:43:59.227Z,5.70
2023-02-02T00:44:59.224Z,2.00
2023-02-02T00:45:59.256Z,1.50
2023-02-02T00:46:59.221Z,2.10
2023-02-02T00:47:59.206Z,0.50
2023-02-02T00:48:59.169Z,4.70
2023-02-02T00:49:59.161Z,4.00
2023-02-02T00:50:59.159Z,1.50
2023-02-02T00:51:59.160Z,0.40
2023-02-02T00:52:59.147Z,2.60
2023-02-02T00:53:59.163Z,1.60
2023-02-02T00:54:59.109Z,3.20
2023-02-02T00:55:59.097Z,5.30
2023-02-02T00:56:59.091Z,1.40
2023-02-02T00:57:59.077Z,2.20
2023-02-02T00:58:59.074Z,6.00
2023-02-02T00:59:59.080Z,2.30
2023-02-02T01:00:59.067Z,0.90
2023-02-02T01:01:59.085Z,6.30
2023-02-02T01:02:59.042Z,6.50
2023-02-02T01:03:59.007Z,1.10
2023-02-02T01:04:58.998Z,7.00
2023-02-02T01:05:59.008Z,5.00
2023-02-02T01:06:58.979Z,2.90
2023-02-02T01:07:59.003Z,1.80
2023-02-02T01:08:58.973Z,0.40
2023-02-02T01:09:58.948Z,5.00
2023-02-02T01:10:58.937Z,9.90
2023-02-02T01:11:58.928Z,3.90
2023-02-02T01:12:58.949Z,2.30
2023-02-02T01:13:58.938Z,3.40
2023-02-02T01:14:58.898Z,2.10
2023-02-02T01:15:58.883Z,1.90
2023-02-02T01:16:58.867Z,5.20
2023-02-02T01:17:58.858Z,3.10
2023-02-02T01:18:58.851Z,5.60
2023-02-02T01:19:58.858Z,3.40
2023-02-02T01:20:58.827Z,6.40
2023-02-02T01:21:58.818Z,5.60
2023-02-02T01:22:58.802Z,1.30
2023-02-02T01:23:58.805Z,6.90
2023-02-02T01:24:58.781Z,1.40
2023-02-02T01:25:58.804Z,5.30
2023-02-02T01:26:58.761Z,4.70
2023-02-02T01:27:58.751Z,4.20
2023-02-02T01:28:58.740Z,2.80
2023-02-02T01:29:58.758Z,7.20
2023-02-02T01:30:58.724Z,4.70
2023-02-02T01:31:58.725Z,4.40
2023-02-02T01:32:58.699Z,3.10
2023-02-02T01:33:58.689Z,6.70
2023-02-02T01:34:58.671Z,3.00
2023-02-02T01:35:58.689Z,5.10
2023-02-02T01:36:58.664Z,5.00
2023-02-02T01:37:58.648Z,3.50
2023-02-02T01:38:58.629Z,7.00
2023-02-02T01:39:58.625Z,2.20
2023-02-02T01:40:58.610Z,5.30
2023-02-02T01:41:58.625Z,6.60
2023-02-02T01:42:58.590Z,9.10
2023-02-02T01:43:58.588Z,5.20
2023-02-02T01:44:58.562Z,5.90
2023-02-02T01:45:58.647Z,6.30
2023-02-02T01:46:58.561Z,8.40
2023-02-02T01:47:58.535Z,5.80
2023-02-02T01:48:58.522Z,2.60
2023-02-02T01:49:58.542Z,1.20
2023-02-02T01:50:58.513Z,4.20
2023-02-02T01:51:58.508Z,2.30
2023-02-02T01:52:58.482Z,9.20
2023-02-02T01:53:58.471Z,4.10
2023-02-02T01:54:58.484Z,4.30
2023-02-02T01:55:58.449Z,7.40
2023-02-02T01:56:58.459Z,5.50
2023-02-02T01:57:58.432Z,5.70
2023-02-02T01:58:58.414Z,3.40
2023-02-02T01:59:58.400Z,5.80
2023-02-02T02:00:58.448Z,3.50
2023-02-02T02:01:58.381Z,3.80
2023-02-02T02:02:58.388Z,5.30
2023-02-02T02:03:58.368Z,3.80
2023-02-02T02:04:58.349Z,9.50
2023-02-02T02:05:58.390Z,6.50
2023-02-02T02:06:58.350Z,4.80
2023-02-02T02:07:58.324Z,3.10
2023-02-02T02:08:58.301Z,6.80
2023-02-02T02:09:58.289Z,8.70
2023-02-02T02:10:58.288Z,3.10
2023-02-02T02:11:58.310Z,6.10
2023-02-02T02:12:58.264Z,2.20
2023-02-02T02:13:58.251Z,5.90
2023-02-02T02:14:58.241Z,11.80
2023-02-02T02:15:58.231Z,4.70
2023-02-02T02:16:58.216Z,5.60
2023-02-02T02:17:58.229Z,2.10
2023-02-02T02:18:58.191Z,6.90
2023-02-02T02:19:58.209Z,4.50
2023-02-02T02:20:58.178Z,6.70
2023-02-02T02:21:58.171Z,5.30
2023-02-02T02:22:58.155Z,4.20
2023-02-02T02:23:58.182Z,4.00
2023-02-02T02:24:58.154Z,6.20
2023-02-02T02:25:58.131Z,2.70
2023-02-02T02:26:58.117Z,10.20
2023-02-02T02:27:59.528Z,4.20
2023-02-02T02:28:58.126Z,4.50
2023-02-02T02:29:58.077Z,7.50
2023-02-02T02:30:58.171Z,5.00
2023-02-02T02:31:58.068Z,8.50
2023-02-02T02:32:58.072Z,4.50
2023-02-02T02:33:58.049Z,7.10
2023-02-02T02:34:58.035Z,11.90
2023-02-02T02:35:58.011Z,2.80
2023-02-02T02:36:58.002Z,2.90
2023-02-02T02:37:57.988Z,10.80
2023-02-02T02:39:05.048Z,13.70
2023-02-02T02:39:57.970Z,9.30
2023-02-02T02:40:57.959Z,7.50
2023-02-02T02:41:57.950Z,4.70
2023-02-02T02:42:57.954Z,3.90
2023-02-02T02:43:57.929Z,11.30
2023-02-02T02:44:57.914Z,6.80
2023-02-02T02:45:57.935Z,8.10
2023-02-02T02:46:57.895Z,9.50
2023-02-02T02:47:57.908Z,6.30
2023-02-02T02:48:57.876Z,13.10
2023-02-02T02:49:57.873Z,5.10
2023-02-02T02:50:57.855Z,4.70
2023-02-02T02:51:57.874Z,6.10
2023-02-02T02:52:57.852Z,3.30
2023-02-02T02:53:57.893Z,7.10
2023-02-02T02:54:57.809Z,4.90
2023-02-02T02:55:57.803Z,3.30
2023-02-02T02:56:57.785Z,3.50
2023-02-02T02:57:57.803Z,4.20
2023-02-02T02:58:57.762Z,10.20
2023-02-02T02:59:57.751Z,11.40
2023-02-02T03:00:57.739Z,5.40
2023-02-02T03:01:57.741Z,8.50
2023-02-02T03:02:57.768Z,9.40
2023-02-02T03:03:57.742Z,6.00
2023-02-02T03:04:57.694Z,12.20
2023-02-02T03:05:57.692Z,9.10
2023-02-02T03:06:57.682Z,3.00
2023-02-02T03:07:57.668Z,6.30
2023-02-02T03:08:57.681Z,3.90
2023-02-02T03:09:57.643Z,7.60
2023-02-02T03:10:57.632Z,8.00
2023-02-02T03:11:57.620Z,5.80
2023-02-02T03:12:57.614Z,6.30
2023-02-02T03:13:57.604Z,6.60
2023-02-02T03:14:57.612Z,6.50
2023-02-02T03:15:57.653Z,8.00
2023-02-02T03:16:57.562Z,3.70
2023-02-02T03:17:57.553Z,5.00
2023-02-02T03:18:57.543Z,4.40
2023-02-02T03:19:57.563Z,4.50
2023-02-02T03:20:57.523Z,6.60
2023-02-02T03:21:57.514Z,1.70
2023-02-02T03:22:57.505Z,5.20
2023-02-02T03:23:57.493Z,7.50
2023-02-02T03:24:57.504Z,3.40
2023-02-02T03:25:57.499Z,10.00
2023-02-02T03:26:57.465Z,9.40
2023-02-02T03:27:57.457Z,8.90
2023-02-02T03:28:57.437Z,14.20
2023-02-02T03:29:57.425Z,6.00
2023-02-02T03:30:57.528Z,9.90
2023-02-02T03:31:57.423Z,7.10
2023-02-02T03:32:57.394Z,6.50
2023-02-02T03:33:57.384Z,8.10
2023-02-02T03:34:57.371Z,5.10
2023-02-02T03:35:57.370Z,8.40
2023-02-02T03:36:57.380Z,11.20
2023-02-02T03:37:57.338Z,5.60
2023-02-02T03:38:57.333Z,9.40
2023-02-02T03:39:57.337Z,9.10
2023-02-02T03:40:57.303Z,5.50
2023-02-02T03:41:57.296Z,7.10
2023-02-02T03:42:57.287Z,11.50
2023-02-02T03:43:57.295Z,8.40
2023-02-02T03:44:57.282Z,4.20
2023-02-02T03:45:57.253Z,5.20
2023-02-02T03:46:57.233Z,8.90
2023-02-02T03:47:57.245Z,6.40
2023-02-02T03:48:57.214Z,10.20
2023-02-02T03:49:57.227Z,10.10
2023-02-02T03:50:57.197Z,10.60
2023-02-02T03:51:57.185Z,9.20
2023-02-02T03:52:57.176Z,9.50
2023-02-02T03:53:57.165Z,9.60
2023-02-02T03:54:57.176Z,7.60
2023-02-02T03:55:57.151Z,10.40
2023-02-02T03:56:57.126Z,7.50
2023-02-02T03:57:57.143Z,11.90
2023-02-02T03:58:57.113Z,8.20
2023-02-02T03:59:57.105Z,8.60
2023-02-02T04:00:57.115Z,5.70
2023-02-02T04:01:57.161Z,6.40
2023-02-02T04:02:57.115Z,11.40
2023-02-02T04:03:57.052Z,10.40
2023-02-02T04:04:57.044Z,8.40
2023-02-02T04:05:57.066Z,9.90
2023-02-02T04:06:57.025Z,6.10
2023-02-02T04:07:57.018Z,8.90
2023-02-02T04:08:56.995Z,9.40
2023-02-02T04:09:56.992Z,4.80
2023-02-02T04:10:57.014Z,9.20
2023-02-02T04:11:56.965Z,4.50
2023-02-02T04:12:56.961Z,10.30
2023-02-02T04:13:56.953Z,4.10
2023-02-02T04:14:56.933Z,4.00
2023-02-02T04:15:56.944Z,8.10
2023-02-02T04:16:56.966Z,8.10
2023-02-02T04:17:56.907Z,5.50
2023-02-02T04:18:56.913Z,10.70
2023-02-02T04:19:56.878Z,8.60
2023-02-02T04:20:56.877Z,5.60
2023-02-02T04:21:56.859Z,5.00
2023-02-02T04:22:56.871Z,5.00
2023-02-02T04:23:56.839Z,3.60
2023-02-02T04:24:56.851Z,11.20
2023-02-02T04:25:56.836Z,4.70
2023-02-02T04:26:56.844Z,4.50
2023-02-02T04:27:56.800Z,9.70
2023-02-02T04:28:56.788Z,7.20
2023-02-02T04:29:56.767Z,5.40
2023-02-02T04:30:56.800Z,8.80
2023-02-02T04:31:56.784Z,4.00
2023-02-02T04:32:56.738Z,1.80
2023-02-02T04:33:56.759Z,3.90
2023-02-02T04:34:56.720Z,3.50
2023-02-02T04:35:56.697Z,1.00
2023-02-02T04:36:56.698Z,2.80
2023-02-02T04:37:56.706Z,3.90
2023-02-02T04:38:56.682Z,0.60
2023-02-02T04:39:56.665Z,0.90
2023-02-02T04:40:56.670Z,5.00
2023-02-02T04:41:56.728Z,3.60
2023-02-02T04:42:56.655Z,2.40
2023-02-02T04:43:56.616Z,0.80
2023-02-02T04:44:56.633Z,0.90
2023-02-02T04:45:56.661Z,0.50
2023-02-02T04:46:56.586Z,1.20
2023-02-02T04:47:56.578Z,2.50
2023-02-02T04:48:56.567Z,0.80
2023-02-02T04:49:56.564Z,1.00
2023-02-02T04:50:56.567Z,7.70
2023-02-02T04:51:56.530Z,1.20
2023-02-02T04:52:56.525Z,1.90
2023-02-02T04:53:56.537Z,5.20
2023-02-02T04:54:56.496Z,0.90
2023-02-02T04:55:56.512Z,0.70
2023-02-02T04:56:56.507Z,6.50
2023-02-02T04:57:56.476Z,1.70
2023-02-02T04:58:56.639Z,3.40
2023-02-02T04:59:56.467Z,2.20
2023-02-02T05:00:56.615Z,4.00
2023-02-02T05:01:56.427Z,0.40
2023-02-02T05:02:56.426Z,4.00
2023-02-02T05:03:56.400Z,0.50
2023-02-02T05:04:56.448Z,0.30
2023-02-02T05:05:56.402Z,3.70
2023-02-02T05:06:56.374Z,3.40
2023-02-02T05:07:56.369Z,1.90
2023-02-02T05:08:56.360Z,0.90
2023-02-02T05:09:56.329Z,1.70
2023-02-02T05:10:56.339Z,3.40
2023-02-02T05:11:56.331Z,0.70
2023-02-02T05:12:56.302Z,1.10
2023-02-02T05:13:56.296Z,0.30
2023-02-02T05:14:56.313Z,0.40
2023-02-02T05:15:56.302Z,1.50
2023-02-02T05:16:56.344Z,2.60
2023-02-02T05:17:56.268Z,0.80
2023-02-02T05:18:56.229Z,0.70
2023-02-02T05:19:56.229Z,1.00
2023-02-02T05:20:56.233Z,0.20
2023-02-02T05:21:56.222Z,0.80
2023-02-02T05:22:56.223Z,0.80
2023-02-02T05:23:56.189Z,2.00
2023-02-02T05:24:56.197Z,0.40
2023-02-02T05:25:56.174Z,0.10
2023-02-02T05:26:56.196Z,0.40
2023-02-02T05:27:56.149Z,1.40
2023-02-02T05:28:56.129Z,0.40
2023-02-02T05:29:56.116Z,2.10
2023-02-02T05:30:56.131Z,1.90
2023-02-02T05:31:56.142Z,3.30
2023-02-02T05:32:56.091Z,0.40
2023-02-02T05:33:56.081Z,0.40
2023-02-02T05:34:56.071Z,0.30
2023-02-02T05:35:56.063Z,1.00
2023-02-02T05:36:56.075Z,0.90
2023-02-02T05:37:58.379Z,0.10
2023-02-02T05:38:56.017Z,0.40
2023-02-02T05:39:56.020Z,7.30
2023-02-02T05:40:55.992Z,0.60
2023-02-02T05:41:56.001Z,1.40
2023-02-02T05:42:56.007Z,2.10
2023-02-02T05:43:55.966Z,1.50
2023-02-02T05:44:55.953Z,1.50
2023-02-02T05:45:55.987Z,3.30
2023-02-02T05:46:55.943Z,2.50
2023-02-02T05:47:55.939Z,2.40
2023-02-02T05:48:55.939Z,0.90
2023-02-02T05:49:55.943Z,0.60
2023-02-02T05:50:55.888Z,0.30
2023-02-02T05:51:55.894Z,1.20
2023-02-02T05:52:55.949Z,4.10
2023-02-02T05:53:55.866Z,1.30
2023-02-02T05:54:55.855Z,4.70
2023-02-02T05:55:55.839Z,4.00
2023-02-02T05:56:55.859Z,3.20
2023-02-02T05:57:55.839Z,0.50
2023-02-02T05:58:55.802Z,0.20
2023-02-02T05:59:55.795Z,2.30
2023-02-02T06:00:56.831Z,0.50
2023-02-02T06:01:55.770Z,8.80
2023-02-02T06:02:55.815Z,0.30
2023-02-02T06:03:55.811Z,5.20
2023-02-02T06:04:55.741Z,0.50
2023-02-02T06:05:55.722Z,0.30
2023-02-02T06:06:55.711Z,0.10
2023-02-02T06:07:55.728Z,0.20
2023-02-02T06:08:55.695Z,0.30
2023-02-02T06:09:55.683Z,0.40
2023-02-02T06:10:55.674Z,0.60
2023-02-02T06:11:55.665Z,0.20
2023-02-02T06:12:55.663Z,1.00
2023-02-02T06:13:55.652Z,3.90
2023-02-02T06:14:55.631Z,1.30
2023-02-02T06:15:55.641Z,0.20
2023-02-02T06:16:55.603Z,0.10
2023-02-02T06:17:55.599Z,0.10
2023-02-02T06:18:55.590Z,2.50
2023-02-02T06:19:55.607Z,2.90
2023-02-02T06:20:55.568Z,4.80
2023-02-02T06:21:55.551Z,5.80
2023-02-02T06:22:55.558Z,12.20
2023-02-02T06:23:55.531Z,11.10
2023-02-02T06:24:55.518Z,14.60
2023-02-02T06:25:55.515Z,12.00
2023-02-02T06:26:55.508Z,9.20
2023-02-02T06:27:55.494Z,12.50
2023-02-02T06:28:55.507Z,16.90
2023-02-02T06:29:55.466Z,7.30
2023-02-02T06:30:55.524Z,9.40
2023-02-02T06:31:55.586Z,13.50
2023-02-02T06:32:55.423Z,6.10
2023-02-02T06:33:55.422Z,2.90
2023-02-02T06:34:55.432Z,1.90
2023-02-02T06:35:55.405Z,2.10
2023-02-02T06:36:55.380Z,1.40
2023-02-02T06:37:55.384Z,2.90
2023-02-02T06:38:55.360Z,1.30
2023-02-02T06:39:55.380Z,0.90
2023-02-02T06:40:55.341Z,1.30
2023-02-02T06:41:55.341Z,0.30
2023-02-02T06:42:55.325Z,2.40
2023-02-02T06:43:55.310Z,1.50
2023-02-02T06:44:55.293Z,0.20
2023-02-02T06:45:55.321Z,0.50
2023-02-02T06:46:55.274Z,0.60
2023-02-02T06:47:55.268Z,0.30
2023-02-02T06:48:55.260Z,0.50
2023-02-02T06:49:55.244Z,0.50
2023-02-02T06:50:55.260Z,0.20
2023-02-02T06:51:55.253Z,0.40
2023-02-02T06:52:55.215Z,0.40
2023-02-02T06:53:56.474Z,0.40
2023-02-02T06:54:55.232Z,0.20
2023-02-02T06:55:55.176Z,2.60
2023-02-02T06:56:55.193Z,0.50
2023-02-02T06:57:55.162Z,3.70
2023-02-02T06:58:55.142Z,0.20
2023-02-02T06:59:55.140Z,0.30
2023-02-02T07:00:55.122Z,0.30
2023-02-02T07:01:55.172Z,0.60
2023-02-02T07:02:55.133Z,0.60
2023-02-02T07:03:55.099Z,0.80
2023-02-02T07:04:55.077Z,4.10
2023-02-02T07:05:55.080Z,0.40
2023-02-02T07:06:55.080Z,0.20
2023-02-02T07:07:55.063Z,0.30
2023-02-02T07:09:02.106Z,6.00
2023-02-02T07:09:57.760Z,1.20
2023-02-02T07:11:11.547Z,2.10
2023-02-02T07:11:56.036Z,3.80
2023-02-02T07:12:54.993Z,0.10
2023-02-02T07:13:54.974Z,1.00
2023-02-02T07:14:54.976Z,0.10
2023-02-02T07:15:55.008Z,0.10
2023-02-02T07:16:54.971Z,3.40
2023-02-02T07:17:54.976Z,0.10
2023-02-02T07:18:54.936Z,0.00
2023-02-02T07:19:54.927Z,0.20
2023-02-02T07:20:54.925Z,0.00
2023-02-02T07:21:54.892Z,0.30
2023-02-02T07:22:54.888Z,0.10
2023-02-02T07:23:54.903Z,0.70
2023-02-02T07:24:54.863Z,0.00
2023-02-02T07:25:54.867Z,0.10
2023-02-02T07:26:54.926Z,0.00
2023-02-02T07:27:54.861Z,0.40
2023-02-02T07:28:54.833Z,0.10
2023-02-02T07:29:54.818Z,0.00
2023-02-02T07:30:54.914Z,0.30
2023-02-02T07:31:54.848Z,0.00
2023-02-02T07:32:54.773Z,1.10
2023-02-02T07:33:54.778Z,0.10
2023-02-02T07:34:54.752Z,1.00
2023-02-02T07:35:54.759Z,0.30
2023-02-02T07:36:54.738Z,0.60
2023-02-02T07:37:54.747Z,4.90
2023-02-02T07:38:54.734Z,0.70
2023-02-02T07:39:54.704Z,3.90
2023-02-02T07:40:54.697Z,1.60
2023-02-02T07:41:54.682Z,1.00
2023-02-02T07:42:54.700Z,0.40
2023-02-02T07:43:54.671Z,0.40
2023-02-02T07:44:54.644Z,1.60
2023-02-02T07:45:54.643Z,1.00
2023-02-02T07:46:54.709Z,2.80
2023-02-02T07:47:54.635Z,1.30
2023-02-02T07:48:54.655Z,1.90
2023-02-02T07:49:54.594Z,1.10
2023-02-02T07:50:54.623Z,4.50
2023-02-02T07:51:54.572Z,0.50
2023-02-02T07:52:54.571Z,0.30
2023-02-02T07:53:54.589Z,0.60
2023-02-02T07:55:05.409Z,0.60
2023-02-02T07:55:55.531Z,0.50
2023-02-02T07:56:54.513Z,2.50
2023-02-02T07:57:54.507Z,1.00
2023-02-02T07:58:54.487Z,0.60
2023-02-02T07:59:54.509Z,1.40
2023-02-02T08:00:54.489Z,0.40
2023-02-02T08:01:54.501Z,0.70
2023-02-02T08:02:54.498Z,1.10
2023-02-02T08:03:54.438Z,4.00
2023-02-02T08:04:54.449Z,1.40
2023-02-02T08:05:54.415Z,1.30
2023-02-02T08:06:54.414Z,5.10
2023-02-02T08:07:54.396Z,0.60
2023-02-02T08:08:54.384Z,0.70
2023-02-02T08:09:54.378Z,2.00
2023-02-02T08:10:54.405Z,0.50
2023-02-02T08:11:54.355Z,1.40
2023-02-02T08:12:54.336Z,0.30
2023-02-02T08:13:54.327Z,0.80
2023-02-02T08:14:54.316Z,0.30
2023-02-02T08:15:54.356Z,2.50
2023-02-02T08:16:54.313Z,1.00
2023-02-02T08:17:54.281Z,2.20
2023-02-02T08:18:54.268Z,2.30
2023-02-02T08:19:54.265Z,1.80
2023-02-02T08:20:54.258Z,0.40
2023-02-02T08:21:54.267Z,0.50
2023-02-02T08:22:54.226Z,0.90
2023-02-02T08:23:54.252Z,0.60
2023-02-02T08:24:54.204Z,1.00
2023-02-02T08:25:54.197Z,1.60
2023-02-02T08:26:54.238Z,0.70
2023-02-02T08:27:54.195Z,1.10
2023-02-02T08:28:54.161Z,1.60
2023-02-02T08:29:54.147Z,0.40
2023-02-02T08:30:54.190Z,1.10
2023-02-02T08:31:54.171Z,0.80
2023-02-02T08:32:54.133Z,0.90
2023-02-02T08:33:54.133Z,0.90
2023-02-02T08:34:54.103Z,1.30
2023-02-02T08:35:54.078Z,5.80
2023-02-02T08:36:54.079Z,1.50
2023-02-02T08:37:54.080Z,0.40
2023-02-02T08:39:49.209Z,2.80
2023-02-02T08:40:49.178Z,2.20
2023-02-02T08:41:49.176Z,0.70
2023-02-02T08:42:49.159Z,0.50
2023-02-02T08:43:49.174Z,4.60
2023-02-02T08:46:01.492Z,1.70
2023-02-02T08:46:01.942Z,0.80
2023-02-02T08:46:50.153Z,4.30
2023-02-02T08:47:56.009Z,3.70
2023-02-02T08:48:50.121Z,6.80
2023-02-02T08:49:49.088Z,0.40
2023-02-02T08:50:49.077Z,0.30
2023-02-02T08:51:49.063Z,2.40
2023-02-02T08:52:49.051Z,2.40
2023-02-02T08:53:49.068Z,0.50
2023-02-02T08:54:49.056Z,0.40
2023-02-02T08:55:49.026Z,1.70
2023-02-02T08:56:49.016Z,0.20
2023-02-02T08:57:49.349Z,0.40
2023-02-02T08:58:49.001Z,1.20
2023-02-02T08:59:49.024Z,0.20
2023-02-02T09:00:49.068Z,0.20
2023-02-02T09:01:49.003Z,0.90
2023-02-02T09:02:48.948Z,0.30
2023-02-02T09:03:48.996Z,0.80
2023-02-02T09:04:48.920Z,0.30
2023-02-02T09:05:48.942Z,0.10
2023-02-02T09:06:48.907Z,0.40
2023-02-02T09:07:48.930Z,0.10
2023-02-02T09:08:51.857Z,2.80
2023-02-02T09:09:49.646Z,0.70
2023-02-02T09:10:48.891Z,0.50
2023-02-02T09:11:48.919Z,0.40
2023-02-02T09:12:48.840Z,1.20
2023-02-02T09:13:48.857Z,0.10
2023-02-02T09:14:49.389Z,0.60
2023-02-02T09:15:48.804Z,0.30
2023-02-02T09:16:48.836Z,0.50
2023-02-02T09:17:48.815Z,3.00
2023-02-02T09:18:49.413Z,0.20
2023-02-02T09:19:48.827Z,1.50
2023-02-02T09:20:48.748Z,1.40
2023-02-02T09:21:48.817Z,4.80
2023-02-02T09:22:48.727Z,2.40
2023-02-02T09:23:48.769Z,0.20
2023-02-02T09:24:48.918Z,0.10
2023-02-02T09:25:48.747Z,0.00
2023-02-02T09:26:48.699Z,0.30
2023-02-02T09:27:48.687Z,0.20
2023-02-02T09:28:48.669Z,0.00
2023-02-02T09:29:48.691Z,0.10
2023-02-02T09:30:48.712Z,0.30
2023-02-02T09:31:48.721Z,0.30
2023-02-02T09:32:48.658Z,0.20
2023-02-02T09:33:49.106Z,0.10
2023-02-02T09:34:48.651Z,0.20
2023-02-02T09:35:48.664Z,0.30
2023-02-02T09:36:49.813Z,0.50
2023-02-02T09:37:49.217Z,0.00
2023-02-02T09:38:48.974Z,0.20
2023-02-02T09:39:48.820Z,0.50
2023-02-02T09:40:48.620Z,0.40
2023-02-02T09:41:48.536Z,1.00
2023-02-02T09:42:49.163Z,0.30
2023-02-02T09:43:48.551Z,0.70
2023-02-02T09:44:48.514Z,0.30
2023-02-02T09:45:48.489Z,0.30
2023-02-02T09:46:48.495Z,0.20
2023-02-02T09:47:48.489Z,0.40
2023-02-02T09:48:48.436Z,0.20
2023-02-02T09:49:48.447Z,0.60
2023-02-02T09:50:48.514Z,0.00
2023-02-02T09:51:48.398Z,1.80
2023-02-02T09:52:48.426Z,0.40
2023-02-02T09:53:55.045Z,0.20
2023-02-02T09:54:49.405Z,0.30
2023-02-02T09:55:48.375Z,0.30
2023-02-02T09:56:48.345Z,1.30
2023-02-02T09:57:48.350Z,0.10
2023-02-02T09:58:48.325Z,0.40
2023-02-02T09:59:48.338Z,0.20
2023-02-02T10:00:48.298Z,0.20
2023-02-02T10:01:48.301Z,0.70
2023-02-02T10:02:48.322Z,3.50
2023-02-02T10:03:48.297Z,0.20
2023-02-02T10:04:48.260Z,3.10
2023-02-02T10:05:48.267Z,0.20
2023-02-02T10:06:48.253Z,0.60
2023-02-02T10:07:48.231Z,0.40
2023-02-02T10:08:48.217Z,0.20
2023-02-02T10:09:48.228Z,1.10
2023-02-02T10:10:48.281Z,0.70
2023-02-02T10:11:48.210Z,1.50
2023-02-02T10:12:48.173Z,0.20
2023-02-02T10:13:48.168Z,0.30
2023-02-02T10:14:48.256Z,1.00
2023-02-02T10:15:48.181Z,2.70
2023-02-02T10:16:48.133Z,0.50
2023-02-02T10:17:48.117Z,0.20
2023-02-02T10:18:48.124Z,0.20
2023-02-02T10:19:48.098Z,0.50
2023-02-02T10:20:48.105Z,0.90
2023-02-02T10:21:48.084Z,0.30
2023-02-02T10:22:48.060Z,0.60
2023-02-02T10:23:48.053Z,0.30
2023-02-02T10:24:48.029Z,0.90
2023-02-02T10:25:48.040Z,0.20
2023-02-02T10:26:48.093Z,0.20
2023-02-02T10:27:48.008Z,0.10
2023-02-02T10:28:48.138Z,0.10
2023-02-02T10:29:49.379Z,0.00
2023-02-02T10:30:48.073Z,0.20
2023-02-02T10:31:48.092Z,0.20
2023-02-02T10:32:47.947Z,0.20
2023-02-02T10:33:47.949Z,0.60
2023-02-02T10:34:47.938Z,0.30
2023-02-02T10:35:47.916Z,0.40
2023-02-02T10:36:47.928Z,0.10
2023-02-02T10:37:47.890Z,1.10
2023-02-02T10:38:47.881Z,0.30
2023-02-02T10:39:47.901Z,0.20
2023-02-02T10:40:47.857Z,0.10
2023-02-02T10:41:47.877Z,0.40
2023-02-02T10:42:47.832Z,0.60
2023-02-02T10:43:47.833Z,0.20
2023-02-02T10:44:47.810Z,0.20
2023-02-02T10:45:47.850Z,0.20
2023-02-02T10:46:47.790Z,0.30
2023-02-02T10:47:47.828Z,2.30
2023-02-02T10:48:47.796Z,0.20
2023-02-02T10:49:50.166Z,0.80
2023-02-02T10:50:47.788Z,0.10
2023-02-02T10:51:47.740Z,0.10
2023-02-02T10:52:47.756Z,0.60
2023-02-02T10:53:47.818Z,0.40
2023-02-02T10:54:56.637Z,0.60
2023-02-02T10:55:48.695Z,0.20
2023-02-02T10:56:47.693Z,0.10
2023-02-02T10:57:47.690Z,1.10
2023-02-02T10:58:47.691Z,0.20
2023-02-02T10:59:47.650Z,0.50
2023-02-02T11:00:47.640Z,0.50
2023-02-02T11:01:47.664Z,0.50
2023-02-02T11:02:47.693Z,4.60
2023-02-02T11:03:47.619Z,0.40
2023-02-02T11:04:47.592Z,0.30
2023-02-02T11:05:47.603Z,0.20
2023-02-02T11:06:47.569Z,0.20
2023-02-02T11:07:47.586Z,0.30
2023-02-02T11:08:47.580Z,1.00
2023-02-02T11:09:47.557Z,0.20
2023-02-02T11:10:47.532Z,1.10
2023-02-02T11:11:47.527Z,0.30
2023-02-02T11:12:47.511Z,0.90
2023-02-02T11:13:47.551Z,0.40
2023-02-02T11:14:47.496Z,0.20
2023-02-02T11:15:47.540Z,0.30
2023-02-02T11:16:47.559Z,0.10
2023-02-02T11:17:47.480Z,2.80
2023-02-02T11:18:47.465Z,0.60
2023-02-02T11:19:47.432Z,0.10
2023-02-02T11:20:47.425Z,0.60
2023-02-02T11:21:47.427Z,1.70
2023-02-02T11:22:47.403Z,0.20
2023-02-02T11:23:48.831Z,1.00
2023-02-02T11:24:47.411Z,2.30
2023-02-02T11:25:47.369Z,0.10
2023-02-02T11:26:47.492Z,0.10
2023-02-02T11:27:47.348Z,0.20
2023-02-02T11:28:47.339Z,0.20
2023-02-02T11:29:47.363Z,0.40
2023-02-02T11:30:47.343Z,0.10
2023-02-02T11:31:47.437Z,1.60
2023-02-02T11:32:47.301Z,0.20
2023-02-02T11:33:47.292Z,0.10
2023-02-02T11:34:47.318Z,0.10
2023-02-02T11:35:47.264Z,0.40
2023-02-02T11:36:47.259Z,0.80
2023-02-02T11:37:47.251Z,0.30
2023-02-02T11:38:47.233Z,0.10
2023-02-02T11:39:47.236Z,0.30
2023-02-02T11:40:47.234Z,0.30
2023-02-02T11:41:47.203Z,0.20
2023-02-02T11:42:47.213Z,1.60
2023-02-02T11:43:47.194Z,1.20
2023-02-02T11:44:47.201Z,0.20
2023-02-02T11:45:47.173Z,0.00
2023-02-02T11:46:47.167Z,1.10
2023-02-02T11:47:47.136Z,0.10
2023-02-02T11:48:47.133Z,1.60
2023-02-02T11:49:47.114Z,1.00
2023-02-02T11:50:47.292Z,0.70
2023-02-02T11:51:47.097Z,0.20
2023-02-02T11:52:47.081Z,0.60
2023-02-02T11:53:47.072Z,0.50
2023-02-02T11:54:47.061Z,0.80
2023-02-02T11:55:47.068Z,0.20
2023-02-02T11:56:47.050Z,1.40
2023-02-02T11:57:47.044Z,1.70
2023-02-02T11:58:47.021Z,0.40
2023-02-02T11:59:47.002Z,2.30
2023-02-02T12:00:47.023Z,0.30
2023-02-02T12:01:47.079Z,0.50
2023-02-02T12:02:46.972Z,0.20
2023-02-02T12:03:47.018Z,0.20
2023-02-02T12:04:46.952Z,1.10
2023-02-02T12:05:46.962Z,0.40
2023-02-02T12:06:46.933Z,0.10
2023-02-02T12:07:46.926Z,2.40
2023-02-02T12:08:46.907Z,0.00
2023-02-02T12:09:46.923Z,0.00
2023-02-02T12:10:46.911Z,0.00
2023-02-02T12:11:46.873Z,0.10
2023-02-02T12:12:46.855Z,0.10
2023-02-02T12:13:46.852Z,0.00
2023-02-02T12:14:46.845Z,0.90
2023-02-02T12:15:46.854Z,0.10
2023-02-02T12:16:46.824Z,0.40
2023-02-02T12:17:46.803Z,0.00
2023-02-02T12:18:46.808Z,3.00
2023-02-02T12:19:46.785Z,0.20
2023-02-02T12:20:46.775Z,0.30
2023-02-02T12:21:46.792Z,0.10
2023-02-02T12:22:46.752Z,0.20
2023-02-02T12:23:46.749Z,0.10
2023-02-02T12:24:46.739Z,1.60
2023-02-02T12:25:46.746Z,0.10
2023-02-02T12:26:46.769Z,0.30
2023-02-02T12:27:46.694Z,0.20
2023-02-02T12:28:46.695Z,0.30
2023-02-02T12:29:46.675Z,10.60
2023-02-02T12:30:46.716Z,0.90
2023-02-02T12:31:46.711Z,0.20
2023-02-02T12:32:46.648Z,0.20
2023-02-02T12:33:46.635Z,0.00
2023-02-02T12:34:46.623Z,0.20
2023-02-02T12:35:46.612Z,0.00
2023-02-02T12:36:46.627Z,0.40
2023-02-02T12:37:46.586Z,0.10
2023-02-02T12:38:46.582Z,0.20
2023-02-02T12:39:46.564Z,1.40
2023-02-02T12:40:46.566Z,0.30
2023-02-02T12:41:46.566Z,0.90
2023-02-02T12:42:46.535Z,0.30
2023-02-02T12:43:46.545Z,0.10
2023-02-02T12:44:46.508Z,0.00
2023-02-02T12:45:46.580Z,0.40
2023-02-02T12:46:46.523Z,0.40
2023-02-02T12:47:46.533Z,0.30
2023-02-02T12:48:46.499Z,0.20
2023-02-02T12:49:46.457Z,0.00
2023-02-02T12:50:46.629Z,0.00
2023-02-02T12:51:46.440Z,1.00
2023-02-02T12:52:46.481Z,0.00
2023-02-02T12:53:46.414Z,1.80
2023-02-02T12:54:50.736Z,0.10
2023-02-02T12:55:47.410Z,0.50
2023-02-02T12:56:46.556Z,0.10
2023-02-02T12:57:46.389Z,0.20
2023-02-02T12:58:46.356Z,0.20
2023-02-02T12:59:46.348Z,0.20
2023-02-02T13:00:46.364Z,0.00
2023-02-02T13:01:46.372Z,0.10
2023-02-02T13:02:46.714Z,0.00
2023-02-02T13:03:46.350Z,0.20
2023-02-02T13:04:46.312Z,0.40
2023-02-02T13:05:46.285Z,0.40
2023-02-02T13:06:46.274Z,0.50
2023-02-02T13:07:46.273Z,0.30
2023-02-02T13:08:46.281Z,0.50
2023-02-02T13:09:46.240Z,3.60
2023-02-02T13:10:46.352Z,0.20
2023-02-02T13:11:46.215Z,0.00
2023-02-02T13:12:46.319Z,0.10
2023-02-02T13:13:46.217Z,0.50
2023-02-02T13:14:46.194Z,0.00
2023-02-02T13:15:46.180Z,0.30
2023-02-02T13:16:46.194Z,0.20
2023-02-02T13:17:46.150Z,0.50
2023-02-02T13:18:46.156Z,0.70